Time;durP1;ratioP1;P1;durP2;ratioP2;P2;SDS_P1;SDS_P2;PMS_P1;PMS_P2;Temp;Humidity;BMP_temperature;BMP_pressure;BME280_temperature;BME280_humidity;BME280_pressure;Samples;Min_cycle;Max_cycle;Signal;HPM_P1;HPM_P2
2023/07/16 00:00:10;;;;;;;;;;;;;;;;;;2203235;59;1877;-25
2023/07/16 00:02:40;;;;;;;;;;;;;;;;;;2203815;59;2093;-25
2023/07/16 00:05:10;;;;;;;;;;;;;;;;;;2203692;58;2165;-25
2023/07/16 00:07:41;;;;;;;;;;;;;;;;;;2203906;66;2360;-25
2023/07/16 00:10:11;;;;;;;;;;;;;;;;;;2203264;66;3119;-25
2023/07/16 00:12:41;;;;;;;;;;;;;;;;;;2199930;59;2675;-25
2023/07/16 00:15:11;;;;;;;;;;;;;;;;;;2202843;66;1933;-24
2023/07/16 00:17:42;;;;;;;;;;;;;;;;;;2203798;66;2095;-24
2023/07/16 00:20:12;;;;;;;;;;;;;;;;;;2203463;67;2438;-25
2023/07/16 00:22:42;;;;;;;;;;;;;;;;;;2203974;66;1980;-24
2023/07/16 00:25:12;;;;;;;;;;;;;;;;;;2203735;66;2526;-24
2023/07/16 00:27:42;;;;;;;;;;;;;;;;;;2203649;66;1902;-24
2023/07/16 00:30:12;;;;;;;;;;;;;;;;;;2203797;59;2266;-24
2023/07/16 00:32:43;;;;;;;;;;;;;;;;;;2203597;66;1827;-24
2023/07/16 00:35:13;;;;;;;;;;;;;;;;;;2204534;67;1930;-24
2023/07/16 00:37:44;;;;;;;;;;;;;;;;;;2204390;66;2156;-24
2023/07/16 00:40:15;;;;;;;;;;;;;;;;;;2205669;66;1838;-24
2023/07/16 00:42:45;;;;;;;;;;;;;;;;;;2206167;66;2335;-24
2023/07/16 00:45:15;;;;;;;;;;;;;;;;;;2205091;66;2589;-24
2023/07/16 00:47:46;;;;;;;;;;;;;;;;;;2203855;66;2850;-24
2023/07/16 00:50:16;;;;;;;;;;;;;;;;;;2202748;66;2303;-24
2023/07/16 00:52:46;;;;;;;;;;;;;;;;;;2203841;59;2373;-24
2023/07/16 00:55:17;;;;;;;;;;;;;;;;;;2203351;59;2029;-24
2023/07/16 00:57:47;;;;;;;;;;;;;;;;;;2203367;60;1765;-24
2023/07/16 01:00:17;;;;;;;;;;;;;;;;;;2203211;59;1979;-24
2023/07/16 01:02:47;;;;;;;;;;;;;;;;;;2203512;66;2013;-24
2023/07/16 01:05:18;;;;;;;;;;;;;;;;;;2198658;58;2239;-24
2023/07/16 01:07:57;;;;;;;;;;;;;;;;;;2204238;66;1787;-25
2023/07/16 01:10:28;;;;;;;;;;;;;;;;;;2205214;66;1776;-24
2023/07/16 01:12:59;;;;;;;;;;;;;;;;;;2201597;59;2432;-24
2023/07/16 01:15:29;;;;;;;;;;;;;;;;;;2215756;66;1976;-24
2023/07/16 01:18:00;;;;;;;;;;;;;;;;;;2200326;66;2792;-24
2023/07/16 01:20:30;;;;;;;;;;;;;;;;;;2203880;66;1807;-26
2023/07/16 01:23:21;;;;;;;;;;;;;;;;;;2203391;66;1987;-25
2023/07/16 01:26:06;;;;;;;;;;;;;;;;;;2204166;66;2079;-26
2023/07/16 01:28:36;;;;;;;;;;;;;;;;;;2203650;66;2126;-26
2023/07/16 01:31:08;;;;;;;;;;;;;;;;;;2203563;66;1795;-26
2023/07/16 01:33:41;;;;;;;;;;;;;;;;;;2201388;66;1937;-26
2023/07/16 01:36:11;;;;;;;;;;;;;;;;;;2203593;66;2325;-26
2023/07/16 01:38:42;;;;;;;;;;;;;;;;;;2202966;66;1737;-26
2023/07/16 01:41:12;;;;;;;;;;;;;;;;;;2205074;66;2010;-26
2023/07/16 01:43:42;;;;;;;;;;;;;;;;;;2203196;66;2176;-26
2023/07/16 01:46:12;;;;;;;;;;;;;;;;;;2203518;58;2647;-26
2023/07/16 01:48:43;;;;;;;;;;;;;;;;;;2199832;66;2422;-26
2023/07/16 01:51:14;;;;;;;;;;;;;;;;;;2202917;66;2363;-27
2023/07/16 01:53:44;;;;;;;;;;;;;;;;;;2203122;59;2171;-26
2023/07/16 01:56:14;;;;;;;;;;;;;;;;;;2203432;59;1879;-27
2023/07/16 01:58:44;;;;;;;;;;;;;;;;;;2203193;67;2562;-26
2023/07/16 02:01:14;;;;;;;;;;;;;;;;;;2202753;59;2796;-26
2023/07/16 02:03:48;;;;;;;;;;;;;;;;;;2200913;58;2787;-26
2023/07/16 02:06:21;;;;;;;;;;;;;;;;;;2198117;59;2915;-26
2023/07/16 02:08:51;;;;;;;;;;;;;;;;;;2199190;67;1497;-26
2023/07/16 02:11:21;;;;;;;;;;;;;;;;;;2202676;59;2368;-26
2023/07/16 02:13:51;;;;;;;;;;;;;;;;;;2203340;66;2588;-26
2023/07/16 02:16:22;;;;;;;;;;;;;;;;;;2203155;66;2058;-25
2023/07/16 02:18:53;;;;;;;;;;;;;;;;;;2203630;66;1249;-26
2023/07/16 02:21:23;;;;;;;;;;;;;;;;;;2202955;66;1667;-26
2023/07/16 02:23:53;;;;;;;;;;;;;;;;;;2202544;66;1718;-26
2023/07/16 02:26:23;;;;;;;;;;;;;;;;;;2203214;66;1615;-26
2023/07/16 02:28:53;;;;;;;;;;;;;;;;;;2203927;66;1683;-26
2023/07/16 02:31:24;;;;;;;;;;;;;;;;;;2203565;67;1135;-25
2023/07/16 02:33:54;;;;;;;;;;;;;;;;;;2200660;59;1945;-25
2023/07/16 02:36:24;;;;;;;;;;;;;;;;;;2200930;66;1742;-25
2023/07/16 02:38:54;;;;;;;;;;;;;;;;;;2204113;66;1647;-25
2023/07/16 02:41:24;;;;;;;;;;;;;;;;;;2203808;66;1602;-25
2023/07/16 02:44:04;;;;;;;;;;;;;;;;;;2199944;59;1289;-25
2023/07/16 02:46:34;;;;;;;;;;;;;;;;;;2205349;58;1736;-25
2023/07/16 02:49:05;;;;;;;;;;;;;;;;;;2203067;66;1314;-25
2023/07/16 02:51:35;;;;;;;;;;;;;;;;;;2200999;59;1337;-25
2023/07/16 02:54:05;;;;;;;;;;;;;;;;;;2199652;59;2105;-25
2023/07/16 02:56:35;;;;;;;;;;;;;;;;;;2203922;59;1526;-25
2023/07/16 02:59:06;;;;;;;;;;;;;;;;;;2203332;66;1259;-25
2023/07/16 03:01:37;;;;;;;;;;;;;;;;;;2203827;59;1589;-25
2023/07/16 03:04:07;;;;;;;;;;;;;;;;;;2200508;58;1706;-25
2023/07/16 03:06:37;;;;;;;;;;;;;;;;;;2200145;59;1683;-25
2023/07/16 03:09:07;;;;;;;;;;;;;;;;;;2202476;66;1571;-25
2023/07/16 03:11:37;;;;;;;;;;;;;;;;;;2203358;59;2064;-25
2023/07/16 03:14:08;;;;;;;;;;;;;;;;;;2203200;66;1925;-25
2023/07/16 03:16:38;;;;;;;;;;;;;;;;;;2203083;66;1259;-25
2023/07/16 03:19:08;;;;;;;;;;;;;;;;;;2203575;66;1926;-26
2023/07/16 03:21:38;;;;;;;;;;;;;;;;;;2202500;59;1944;-26
2023/07/16 03:24:09;;;;;;;;;;;;;;;;;;2203192;66;1236;-27
2023/07/16 03:26:42;;;;;;;;;;;;;;;;;;2200807;66;1375;-26
2023/07/16 03:29:12;;;;;;;;;;;;;;;;;;2203083;66;1203;-26
2023/07/16 03:31:42;;;;;;;;;;;;;;;;;;2203287;66;1175;-26
2023/07/16 03:34:13;;;;;;;;;;;;;;;;;;2200560;66;1920;-26
2023/07/16 03:36:43;;;;;;;;;;;;;;;;;;2203373;66;2203;-26
2023/07/16 03:39:13;;;;;;;;;;;;;;;;;;2202962;66;1638;-26
2023/07/16 03:41:43;;;;;;;;;;;;;;;;;;2203487;66;1694;-26
2023/07/16 03:44:14;;;;;;;;;;;;;;;;;;2200464;66;1279;-26
2023/07/16 03:46:44;;;;;;;;;;;;;;;;;;2206721;58;1450;-26
2023/07/16 03:49:14;;;;;;;;;;;;;;;;;;2203166;67;2196;-26
2023/07/16 03:51:44;;;;;;;;;;;;;;;;;;2203636;66;1372;-26
2023/07/16 03:54:14;;;;;;;;;;;;;;;;;;2203580;59;2023;-25
2023/07/16 03:56:45;;;;;;;;;;;;;;;;;;2200180;59;2966;-26
2023/07/16 03:59:15;;;;;;;;;;;;;;;;;;2203522;66;1726;-25
2023/07/16 04:01:45;;;;;;;;;;;;;;;;;;2204211;59;2063;-26
2023/07/16 04:04:15;;;;;;;;;;;;;;;;;;2204927;58;1378;-25
2023/07/16 04:06:46;;;;;;;;;;;;;;;;;;2204221;59;2124;-25
2023/07/16 04:09:16;;;;;;;;;;;;;;;;;;2203690;66;1785;-25
2023/07/16 04:11:46;;;;;;;;;;;;;;;;;;2204637;59;1803;-25
2023/07/16 04:14:16;;;;;;;;;;;;;;;;;;2203631;66;1981;-25
2023/07/16 04:16:46;;;;;;;;;;;;;;;;;;2204504;67;1839;-25
2023/07/16 04:19:17;;;;;;;;;;;;;;;;;;2205107;66;2363;-25
2023/07/16 04:21:47;;;;;;;;;;;;;;;;;;2205685;66;1356;-25
2023/07/16 04:24:17;;;;;;;;;;;;;;;;;;2204016;67;1560;-25
2023/07/16 04:26:47;;;;;;;;;;;;;;;;;;2200249;67;1734;-25
2023/07/16 04:29:17;;;;;;;;;;;;;;;;;;2215347;66;1636;-25
2023/07/16 04:31:48;;;;;;;;;;;;;;;;;;2203639;66;1270;-25
2023/07/16 04:34:18;;;;;;;;;;;;;;;;;;2203655;66;2021;-25
2023/07/16 04:36:48;;;;;;;;;;;;;;;;;;2204341;66;2209;-25
2023/07/16 04:39:18;;;;;;;;;;;;;;;;;;2204287;66;1913;-25
2023/07/16 04:41:49;;;;;;;;;;;;;;;;;;2201019;66;1169;-25
2023/07/16 04:44:19;;;;;;;;;;;;;;;;;;2204108;66;1661;-25
2023/07/16 04:46:49;;;;;;;;;;;;;;;;;;2199190;58;1735;-25
2023/07/16 04:49:19;;;;;;;;;;;;;;;;;;2203750;66;1385;-25
2023/07/16 04:51:49;;;;;;;;;;;;;;;;;;2204407;66;1646;-25
2023/07/16 04:54:20;;;;;;;;;;;;;;;;;;2202753;59;2147;-25
2023/07/16 04:56:50;;;;;;;;;;;;;;;;;;2204056;59;1438;-26
2023/07/16 04:59:20;;;;;;;;;;;;;;;;;;2200917;66;1881;-26
2023/07/16 05:01:50;;;;;;;;;;;;;;;;;;2201775;59;1492;-26
2023/07/16 05:04:20;;;;;;;;;;;;;;;;;;2205105;58;1577;-26
2023/07/16 05:06:52;;;;;;;;;;;;;;;;;;2203768;59;1729;-27
2023/07/16 05:09:22;;;;;;;;;;;;;;;;;;2199920;66;1571;-27
2023/07/16 05:11:52;;;;;;;;;;;;;;;;;;2203818;59;1366;-28
2023/07/16 05:14:22;;;;;;;;;;;;;;;;;;2204006;66;1996;-27
2023/07/16 05:16:52;;;;;;;;;;;;;;;;;;2204353;67;1692;-27
2023/07/16 05:19:23;;;;;;;;;;;;;;;;;;2197678;59;2181;-27
2023/07/16 05:21:53;;;;;;;;;;;;;;;;;;2203757;66;1764;-26
2023/07/16 05:24:23;;;;;;;;;;;;;;;;;;2200163;66;1703;-26
2023/07/16 05:26:54;;;;;;;;;;;;;;;;;;2204395;66;1193;-26
2023/07/16 05:29:24;;;;;;;;;;;;;;;;;;2202935;66;1567;-26
2023/07/16 05:31:54;;;;;;;;;;;;;;;;;;2201034;67;1658;-26
2023/07/16 05:34:25;;;;;;;;;;;;;;;;;;2203753;66;1992;-26
2023/07/16 05:36:55;;;;;;;;;;;;;;;;;;2203785;66;1410;-26
2023/07/16 05:39:25;;;;;;;;;;;;;;;;;;2204061;66;1173;-27
2023/07/16 05:41:55;;;;;;;;;;;;;;;;;;2203850;66;1734;-26
2023/07/16 05:44:25;;;;;;;;;;;;;;;;;;2204006;58;2089;-26
2023/07/16 05:46:56;;;;;;;;;;;;;;;;;;2203485;66;2065;-26
2023/07/16 05:49:26;;;;;;;;;;;;;;;;;;2200155;66;2104;-27
2023/07/16 05:51:56;;;;;;;;;;;;;;;;;;2203517;66;2420;-26
2023/07/16 05:54:27;;;;;;;;;;;;;;;;;;2203200;66;2179;-26
2023/07/16 05:56:57;;;;;;;;;;;;;;;;;;2199566;59;2024;-26
2023/07/16 05:59:27;;;;;;;;;;;;;;;;;;2203203;66;1942;-26
2023/07/16 06:01:58;;;;;;;;;;;;;;;;;;2203582;59;2483;-26
2023/07/16 06:04:28;;;;;;;;;;;;;;;;;;2203702;66;2532;-26
2023/07/16 06:06:59;;;;;;;;;;;;;;;;;;2202900;59;2292;-26
2023/07/16 06:09:29;;;;;;;;;;;;;;;;;;2199655;66;2098;-26
2023/07/16 06:11:59;;;;;;;;;;;;;;;;;;2203153;59;2485;-26
2023/07/16 06:14:29;;;;;;;;;;;;;;;;;;2203538;66;2415;-26
2023/07/16 06:17:00;;;;;;;;;;;;;;;;;;2203549;66;2041;-26
2023/07/16 06:19:30;;;;;;;;;;;;;;;;;;2204296;66;2569;-26
2023/07/16 06:22:00;;;;;;;;;;;;;;;;;;2203737;66;2072;-26
2023/07/16 06:24:30;;;;;;;;;;;;;;;;;;2203501;66;1966;-26
2023/07/16 06:27:01;;;;;;;;;;;;;;;;;;2203358;67;2579;-26
2023/07/16 06:29:31;;;;;;;;;;;;;;;;;;2203054;66;1712;-26
2023/07/16 06:32:02;;;;;;;;;;;;;;;;;;2203862;67;2027;-26
2023/07/16 06:34:32;;;;;;;;;;;;;;;;;;2200972;66;1999;-26
2023/07/16 06:37:03;;;;;;;;;;;;;;;;;;2203065;66;1696;-26
2023/07/16 06:39:33;;;;;;;;;;;;;;;;;;2203619;66;2474;-26
2023/07/16 06:42:03;;;;;;;;;;;;;;;;;;2199617;67;1980;-26
2023/07/16 06:44:34;;;;;;;;;;;;;;;;;;2204984;58;2057;-26
2023/07/16 06:47:04;;;;;;;;;;;;;;;;;;2203649;66;2022;-26
2023/07/16 06:49:34;;;;;;;;;;;;;;;;;;2203054;66;2084;-26
2023/07/16 06:52:05;;;;;;;;;;;;;;;;;;2202968;59;2184;-26
2023/07/16 06:54:36;;;;;;;;;;;;;;;;;;2199006;67;2068;-26
2023/07/16 06:57:06;;;;;;;;;;;;;;;;;;2203925;59;2186;-26
2023/07/16 06:59:37;;;;;;;;;;;;;;;;;;2203402;66;1686;-26
2023/07/16 07:02:07;;;;;;;;;;;;;;;;;;2204068;59;2611;-26
2023/07/16 07:04:37;;;;;;;;;;;;;;;;;;2205166;59;2153;-26
2023/07/16 07:07:07;;;;;;;;;;;;;;;;;;2203604;66;2183;-26
2023/07/16 07:09:38;;;;;;;;;;;;;;;;;;2203347;66;2263;-26
2023/07/16 07:12:08;;;;;;;;;;;;;;;;;;2202664;59;1905;-26
2023/07/16 07:14:38;;;;;;;;;;;;;;;;;;2203359;67;2099;-26
2023/07/16 07:17:08;;;;;;;;;;;;;;;;;;2199845;66;2186;-26
2023/07/16 07:19:39;;;;;;;;;;;;;;;;;;2203947;66;2368;-26
2023/07/16 07:22:09;;;;;;;;;;;;;;;;;;2203753;66;2087;-26
2023/07/16 07:24:39;;;;;;;;;;;;;;;;;;2200205;66;2125;-26
2023/07/16 07:27:10;;;;;;;;;;;;;;;;;;2203708;66;2029;-26
2023/07/16 07:29:40;;;;;;;;;;;;;;;;;;2204104;66;2216;-26
2023/07/16 07:32:10;;;;;;;;;;;;;;;;;;2202046;59;2489;-26
2023/07/16 07:34:40;;;;;;;;;;;;;;;;;;2203747;59;2052;-25
2023/07/16 07:37:11;;;;;;;;;;;;;;;;;;2202319;59;2407;-26
2023/07/16 07:39:41;;;;;;;;;;;;;;;;;;2203741;66;1831;-26
2023/07/16 07:42:11;;;;;;;;;;;;;;;;;;2203595;66;1692;-25
2023/07/16 07:44:41;;;;;;;;;;;;;;;;;;2202483;58;1872;-26
2023/07/16 07:47:11;;;;;;;;;;;;;;;;;;2203621;59;2120;-26
2023/07/16 07:49:42;;;;;;;;;;;;;;;;;;2203435;66;1696;-26
2023/07/16 07:52:12;;;;;;;;;;;;;;;;;;2203723;59;2298;-26
2023/07/16 07:54:42;;;;;;;;;;;;;;;;;;2203518;59;2701;-26
2023/07/16 07:57:12;;;;;;;;;;;;;;;;;;2204367;59;1974;-26
2023/07/16 07:59:43;;;;;;;;;;;;;;;;;;2206303;59;1926;-26
2023/07/16 08:02:13;;;;;;;;;;;;;;;;;;2204552;59;2669;-26
2023/07/16 08:04:43;;;;;;;;;;;;;;;;;;2205094;58;1646;-23
2023/07/16 08:07:14;;;;;;;;;;;;;;;;;;2204299;66;1759;-23
2023/07/16 08:09:45;;;;;;;;;;;;;;;;;;2204378;66;2042;-23
2023/07/16 08:12:15;;;;;;;;;;;;;;;;;;2213326;58;2664;-23
2023/07/16 08:14:48;;;;;;;;;;;;;;;;;;2203198;59;2166;-23
2023/07/16 08:17:18;;;;;;;;;;;;;;;;;;2203229;66;2571;-23
2023/07/16 08:19:48;;;;;;;;;;;;;;;;;;2204132;66;2205;-23
2023/07/16 08:22:18;;;;;;;;;;;;;;;;;;2199697;59;2508;-23
2023/07/16 08:24:50;;;;;;;;;;;;;;;;;;2204292;66;2068;-23
2023/07/16 08:27:20;;;;;;;;;;;;;;;;;;2203819;66;2071;-23
2023/07/16 08:29:51;;;;;;;;;;;;;;;;;;2204148;66;1943;-23
2023/07/16 08:32:21;;;;;;;;;;;;;;;;;;2203852;67;2146;-23
2023/07/16 08:34:51;;;;;;;;;;;;;;;;;;2200848;59;2059;-23
2023/07/16 08:37:21;;;;;;;;;;;;;;;;;;2204086;66;2081;-23
2023/07/16 08:39:53;;;;;;;;;;;;;;;;;;2203718;66;1992;-23
2023/07/16 08:42:23;;;;;;;;;;;;;;;;;;2199905;66;1925;-23
2023/07/16 08:44:54;;;;;;;;;;;;;;;;;;2204068;58;2171;-22
2023/07/16 08:47:25;;;;;;;;;;;;;;;;;;2204332;66;2015;-22
2023/07/16 08:50:00;;;;;;;;;;;;;;;;;;2203051;59;2619;-22
2023/07/16 08:52:30;;;;;;;;;;;;;;;;;;2203817;67;2786;-23
2023/07/16 08:55:01;;;;;;;;;;;;;;;;;;2203310;59;2128;-23
2023/07/16 08:57:31;;;;;;;;;;;;;;;;;;2200872;59;2506;-23
2023/07/16 09:00:02;;;;;;;;;;;;;;;;;;2202200;59;3111;-23
2023/07/16 09:02:32;;;;;;;;;;;;;;;;;;2202889;67;2392;-23
2023/07/16 09:05:04;;;;;;;;;;;;;;;;;;2199227;58;2202;-23
2023/07/16 09:07:35;;;;;;;;;;;;;;;;;;2200051;59;2599;-23
2023/07/16 09:10:05;;;;;;;;;;;;;;;;;;2202946;66;2621;-23
2023/07/16 09:12:35;;;;;;;;;;;;;;;;;;2200007;59;2145;-23
2023/07/16 09:15:06;;;;;;;;;;;;;;;;;;2201915;66;2071;-23
2023/07/16 09:17:38;;;;;;;;;;;;;;;;;;2204072;66;1932;-23
2023/07/16 09:20:08;;;;;;;;;;;;;;;;;;2199950;59;2965;-22
2023/07/16 09:22:38;;;;;;;;;;;;;;;;;;2202232;59;3681;-22
2023/07/16 09:25:09;;;;;;;;;;;;;;;;;;2202624;66;2688;-22
2023/07/16 09:27:39;;;;;;;;;;;;;;;;;;2203107;66;2045;-22
2023/07/16 09:30:15;;;;;;;;;;;;;;;;;;2202253;66;2566;-22
2023/07/16 09:32:45;;;;;;;;;;;;;;;;;;2202450;66;2924;-22
2023/07/16 09:35:16;;;;;;;;;;;;;;;;;;2202512;66;2211;-22
2023/07/16 09:37:47;;;;;;;;;;;;;;;;;;2202204;66;3060;-22
2023/07/16 09:40:17;;;;;;;;;;;;;;;;;;2202970;66;2081;-22
2023/07/16 09:42:49;;;;;;;;;;;;;;;;;;2203552;66;2099;-22
2023/07/16 09:45:19;;;;;;;;;;;;;;;;;;2202947;58;2560;-22
2023/07/16 09:47:49;;;;;;;;;;;;;;;;;;2204243;66;2637;-22
2023/07/16 09:50:23;;;;;;;;;;;;;;;;;;2200583;66;2552;-22
2023/07/16 09:52:53;;;;;;;;;;;;;;;;;;2203419;59;2583;-22
2023/07/16 09:55:24;;;;;;;;;;;;;;;;;;2202820;59;3102;-22
2023/07/16 09:57:56;;;;;;;;;;;;;;;;;;2202914;58;6280;-22
2023/07/16 10:00:27;;;;;;;;;;;;;;;;;;2202511;59;2590;-22
2023/07/16 10:02:58;;;;;;;;;;;;;;;;;;2200023;66;2116;-22
2023/07/16 10:05:28;;;;;;;;;;;;;;;;;;2202720;58;2561;-22
2023/07/16 10:07:59;;;;;;;;;;;;;;;;;;2201586;66;2124;-22
2023/07/16 10:10:39;;;;;;;;;;;;;;;;;;2201455;66;2451;-22
2023/07/16 10:13:13;;;;;;;;;;;;;;;;;;2202932;59;2540;-22
2023/07/16 10:15:51;;;;;;;;;;;;;;;;;;2202508;66;2065;-22
2023/07/16 10:18:27;;;;;;;;;;;;;;;;;;2199809;66;2143;-22
2023/07/16 10:21:07;;;;;;;;;;;;;;;;;;2201327;66;3285;-22
2023/07/16 10:23:41;;;;;;;;;;;;;;;;;;2204570;66;3079;-22
2023/07/16 10:26:19;;;;;;;;;;;;;;;;;;2201877;66;2721;-22
2023/07/16 10:28:49;;;;;;;;;;;;;;;;;;2203618;58;2163;-22
2023/07/16 10:31:24;;;;;;;;;;;;;;;;;;2202291;59;2354;-21
2023/07/16 10:34:08;;;;;;;;;;;;;;;;;;2204563;66;2012;-22
2023/07/16 10:36:38;;;;;;;;;;;;;;;;;;2202401;66;3046;-22
2023/07/16 10:39:09;;;;;;;;;;;;;;;;;;2202363;66;2045;-22
2023/07/16 10:41:39;;;;;;;;;;;;;;;;;;2202452;66;2223;-22
2023/07/16 10:44:11;;;;;;;;;;;;;;;;;;2199203;66;2887;-22
2023/07/16 10:46:42;;;;;;;;;;;;;;;;;;2202820;58;2620;-22
2023/07/16 10:49:12;;;;;;;;;;;;;;;;;;2202763;66;1889;-22
2023/07/16 10:51:43;;;;;;;;;;;;;;;;;;2202227;66;2439;-22
2023/07/16 10:54:13;;;;;;;;;;;;;;;;;;2201736;59;2571;-22
2023/07/16 10:56:43;;;;;;;;;;;;;;;;;;2202995;59;2133;-22
2023/07/16 10:59:13;;;;;;;;;;;;;;;;;;2202807;66;2611;-22
2023/07/16 11:01:47;;;;;;;;;;;;;;;;;;2202218;59;2101;-22
2023/07/16 11:04:17;;;;;;;;;;;;;;;;;;2202633;66;2597;-22
2023/07/16 11:06:49;;;;;;;;;;;;;;;;;;2202655;59;1903;-22
2023/07/16 11:09:19;;;;;;;;;;;;;;;;;;2199792;67;2045;-23
2023/07/16 11:11:50;;;;;;;;;;;;;;;;;;2204772;59;2801;-23
2023/07/16 11:14:20;;;;;;;;;;;;;;;;;;2200575;66;2579;-23
2023/07/16 11:16:50;;;;;;;;;;;;;;;;;;2204003;60;2588;-23
2023/07/16 11:19:20;;;;;;;;;;;;;;;;;;2201392;66;2799;-23
2023/07/16 11:21:52;;;;;;;;;;;;;;;;;;2201777;59;3145;-23
2023/07/16 11:24:22;;;;;;;;;;;;;;;;;;2202464;59;3018;-23
2023/07/16 11:26:54;;;;;;;;;;;;;;;;;;2203332;66;2091;-22
2023/07/16 11:29:24;;;;;;;;;;;;;;;;;;2202602;58;2533;-23
2023/07/16 11:31:54;;;;;;;;;;;;;;;;;;2202397;58;2363;-23
2023/07/16 11:34:24;;;;;;;;;;;;;;;;;;2201683;59;2076;-23
2023/07/16 11:36:55;;;;;;;;;;;;;;;;;;2198734;59;2441;-23
2023/07/16 11:39:28;;;;;;;;;;;;;;;;;;2199410;59;2464;-23
2023/07/16 11:41:58;;;;;;;;;;;;;;;;;;2198737;59;1883;-23
2023/07/16 11:44:32;;;;;;;;;;;;;;;;;;2203129;58;1951;-23
2023/07/16 11:47:03;;;;;;;;;;;;;;;;;;2202659;63;1919;-23
2023/07/16 11:49:33;;;;;;;;;;;;;;;;;;2200085;66;2031;-23
2023/07/16 11:52:03;;;;;;;;;;;;;;;;;;2202626;59;2198;-23
2023/07/16 11:54:34;;;;;;;;;;;;;;;;;;2202750;59;2164;-23
2023/07/16 11:57:04;;;;;;;;;;;;;;;;;;2202218;59;2216;-22
2023/07/16 11:59:34;;;;;;;;;;;;;;;;;;2202360;66;2581;-23
2023/07/16 12:02:04;;;;;;;;;;;;;;;;;;2202641;59;1965;-23
2023/07/16 12:04:35;;;;;;;;;;;;;;;;;;2203480;58;2241;-23
2023/07/16 12:07:05;;;;;;;;;;;;;;;;;;2203785;66;1975;-23
2023/07/16 12:09:35;;;;;;;;;;;;;;;;;;2203311;66;1923;-23
2023/07/16 12:12:06;;;;;;;;;;;;;;;;;;2203050;59;1859;-24
2023/07/16 12:14:36;;;;;;;;;;;;;;;;;;2203272;66;2079;-24
2023/07/16 12:17:06;;;;;;;;;;;;;;;;;;2201675;66;2328;-24
2023/07/16 12:19:36;;;;;;;;;;;;;;;;;;2200868;66;2066;-24
2023/07/16 12:22:07;;;;;;;;;;;;;;;;;;2199275;59;2619;-24
2023/07/16 12:24:37;;;;;;;;;;;;;;;;;;2202112;59;3448;-24
2023/07/16 12:27:08;;;;;;;;;;;;;;;;;;2200178;66;2134;-24
2023/07/16 12:29:38;;;;;;;;;;;;;;;;;;2202880;66;2652;-24
2023/07/16 12:32:08;;;;;;;;;;;;;;;;;;2200419;66;2531;-24
2023/07/16 12:34:38;;;;;;;;;;;;;;;;;;2202291;66;1986;-25
2023/07/16 12:37:09;;;;;;;;;;;;;;;;;;2203287;66;2040;-24
2023/07/16 12:39:39;;;;;;;;;;;;;;;;;;2202363;66;1776;-24
2023/07/16 12:42:09;;;;;;;;;;;;;;;;;;2202436;66;1987;-25
2023/07/16 12:44:40;;;;;;;;;;;;;;;;;;2203949;58;2048;-24
2023/07/16 12:47:10;;;;;;;;;;;;;;;;;;2203178;66;2305;-24
2023/07/16 12:49:41;;;;;;;;;;;;;;;;;;2198792;66;2320;-24
2023/07/16 12:52:11;;;;;;;;;;;;;;;;;;2203249;66;2209;-24
2023/07/16 12:54:41;;;;;;;;;;;;;;;;;;2202526;59;2330;-24
2023/07/16 12:57:11;;;;;;;;;;;;;;;;;;2201246;60;2318;-24
2023/07/16 12:59:41;;;;;;;;;;;;;;;;;;2202414;59;2025;-22
2023/07/16 13:02:15;;;;;;;;;;;;;;;;;;2203064;66;1766;-24
2023/07/16 13:04:45;;;;;;;;;;;;;;;;;;2203393;58;2007;-24
2023/07/16 13:07:15;;;;;;;;;;;;;;;;;;2202605;59;2018;-24
2023/07/16 13:09:45;;;;;;;;;;;;;;;;;;2202218;59;2014;-24
2023/07/16 13:12:16;;;;;;;;;;;;;;;;;;2203272;59;1952;-24
2023/07/16 13:14:46;;;;;;;;;;;;;;;;;;2200627;66;1943;-24
2023/07/16 13:17:17;;;;;;;;;;;;;;;;;;2202554;66;1872;-24
2023/07/16 13:19:47;;;;;;;;;;;;;;;;;;2202375;66;2102;-24
2023/07/16 13:22:18;;;;;;;;;;;;;;;;;;2202466;66;1885;-24
2023/07/16 13:24:48;;;;;;;;;;;;;;;;;;2200599;59;3062;-24
2023/07/16 13:27:22;;;;;;;;;;;;;;;;;;2202069;66;2233;-22
2023/07/16 13:29:52;;;;;;;;;;;;;;;;;;2202592;66;2111;-22
2023/07/16 13:32:22;;;;;;;;;;;;;;;;;;2201655;59;3076;-22
2023/07/16 13:34:53;;;;;;;;;;;;;;;;;;2203326;66;2417;-24
2023/07/16 13:37:24;;;;;;;;;;;;;;;;;;2198946;59;2506;-24
2023/07/16 13:39:54;;;;;;;;;;;;;;;;;;2201894;66;2324;-24
2023/07/16 13:42:24;;;;;;;;;;;;;;;;;;2202449;59;1986;-24
2023/07/16 13:44:54;;;;;;;;;;;;;;;;;;2202972;58;2492;-24
2023/07/16 13:47:24;;;;;;;;;;;;;;;;;;2203148;66;1992;-24
2023/07/16 13:49:55;;;;;;;;;;;;;;;;;;2202514;66;1908;-24
2023/07/16 13:52:25;;;;;;;;;;;;;;;;;;2199862;59;2114;-24
2023/07/16 13:54:55;;;;;;;;;;;;;;;;;;2203273;59;2468;-24
2023/07/16 13:57:26;;;;;;;;;;;;;;;;;;2200417;66;2515;-24
2023/07/16 13:59:57;;;;;;;;;;;;;;;;;;2202135;59;2574;-25
2023/07/16 14:02:27;;;;;;;;;;;;;;;;;;2200118;66;2088;-24
2023/07/16 14:04:57;;;;;;;;;;;;;;;;;;2197251;67;1927;-24
2023/07/16 14:07:27;;;;;;;;;;;;;;;;;;2200913;59;2526;-24
2023/07/16 14:09:58;;;;;;;;;;;;;;;;;;2202669;66;2085;-24
2023/07/16 14:12:28;;;;;;;;;;;;;;;;;;2202653;64;1742;-24
2023/07/16 14:14:58;;;;;;;;;;;;;;;;;;2200219;66;2776;-24
2023/07/16 14:17:28;;;;;;;;;;;;;;;;;;2203591;67;2279;-24
2023/07/16 14:19:58;;;;;;;;;;;;;;;;;;2202208;66;1954;-24
2023/07/16 14:22:29;;;;;;;;;;;;;;;;;;2199823;59;2585;-24
2023/07/16 14:24:59;;;;;;;;;;;;;;;;;;2201471;59;2732;-22
2023/07/16 14:27:31;;;;;;;;;;;;;;;;;;2202894;59;2452;-24
2023/07/16 14:30:01;;;;;;;;;;;;;;;;;;2201405;59;2273;-24
2023/07/16 14:32:32;;;;;;;;;;;;;;;;;;2203152;66;2043;-24
2023/07/16 14:35:03;;;;;;;;;;;;;;;;;;2202165;66;2047;-24
2023/07/16 14:37:33;;;;;;;;;;;;;;;;;;2203140;66;3285;-24
2023/07/16 14:40:07;;;;;;;;;;;;;;;;;;2203086;66;1990;-24
2023/07/16 14:42:37;;;;;;;;;;;;;;;;;;2203596;66;2623;-22
2023/07/16 14:45:08;;;;;;;;;;;;;;;;;;2203587;59;2228;-23
2023/07/16 14:47:38;;;;;;;;;;;;;;;;;;2203153;59;2582;-22
2023/07/16 14:50:09;;;;;;;;;;;;;;;;;;2202341;66;1924;-22
2023/07/16 14:52:39;;;;;;;;;;;;;;;;;;2199482;59;2203;-22
2023/07/16 14:55:09;;;;;;;;;;;;;;;;;;2196050;59;2617;-22
2023/07/16 14:57:41;;;;;;;;;;;;;;;;;;2202125;59;2108;-22
2023/07/16 15:00:11;;;;;;;;;;;;;;;;;;2202190;59;2634;-22
2023/07/16 15:02:44;;;;;;;;;;;;;;;;;;2202241;66;1973;-22
2023/07/16 15:05:14;;;;;;;;;;;;;;;;;;2202725;59;2061;-22
2023/07/16 15:07:45;;;;;;;;;;;;;;;;;;2201584;66;1906;-22
2023/07/16 15:10:15;;;;;;;;;;;;;;;;;;2201702;66;1973;-22
2023/07/16 15:12:45;;;;;;;;;;;;;;;;;;2202310;59;2136;-22
2023/07/16 15:15:15;;;;;;;;;;;;;;;;;;2201557;66;2181;-22
2023/07/16 15:17:46;;;;;;;;;;;;;;;;;;2200174;66;1987;-22
2023/07/16 15:20:16;;;;;;;;;;;;;;;;;;2202023;59;2162;-22
2023/07/16 15:22:46;;;;;;;;;;;;;;;;;;2202604;66;2769;-22
2023/07/16 15:25:16;;;;;;;;;;;;;;;;;;2202330;59;2203;-22
2023/07/16 15:27:49;;;;;;;;;;;;;;;;;;2202233;66;2848;-23
2023/07/16 15:30:20;;;;;;;;;;;;;;;;;;2203553;66;2663;-23
2023/07/16 15:32:51;;;;;;;;;;;;;;;;;;2202202;66;2436;-22
2023/07/16 15:35:21;;;;;;;;;;;;;;;;;;2203194;66;2229;-23
2023/07/16 15:37:51;;;;;;;;;;;;;;;;;;2202481;66;2072;-23
2023/07/16 15:40:21;;;;;;;;;;;;;;;;;;2202138;66;2334;-23
2023/07/16 15:42:52;;;;;;;;;;;;;;;;;;2200830;66;1897;-23
2023/07/16 15:45:23;;;;;;;;;;;;;;;;;;2203262;58;1979;-23
2023/07/16 15:48:00;;;;;;;;;;;;;;;;;;2203093;66;2934;-22
2023/07/16 15:50:30;;;;;;;;;;;;;;;;;;2203070;66;1947;-23
2023/07/16 15:53:01;;;;;;;;;;;;;;;;;;2201571;59;2702;-23
2023/07/16 15:55:31;;;;;;;;;;;;;;;;;;2200571;59;1982;-23
2023/07/16 15:58:01;;;;;;;;;;;;;;;;;;2204176;59;2464;-23
2023/07/16 16:00:31;;;;;;;;;;;;;;;;;;2204705;59;1928;-23
2023/07/16 16:03:02;;;;;;;;;;;;;;;;;;2202993;66;2051;-23
2023/07/16 16:05:32;;;;;;;;;;;;;;;;;;2203522;58;2138;-23
2023/07/16 16:08:16;;;;;;;;;;;;;;;;;;2201850;66;2009;-23
2023/07/16 16:10:48;;;;;;;;;;;;;;;;;;2202510;66;1871;-22
2023/07/16 16:13:19;;;;;;;;;;;;;;;;;;2203436;59;1927;-22
2023/07/16 16:15:50;;;;;;;;;;;;;;;;;;2204022;66;1940;-22
2023/07/16 16:18:22;;;;;;;;;;;;;;;;;;2204299;66;1794;-22
2023/07/16 16:20:52;;;;;;;;;;;;;;;;;;2202632;59;1911;-22
2023/07/16 16:23:23;;;;;;;;;;;;;;;;;;2202556;66;2480;-22
2023/07/16 16:25:56;;;;;;;;;;;;;;;;;;2203241;66;2089;-23
2023/07/16 16:28:26;;;;;;;;;;;;;;;;;;2202451;66;3979;-23
2023/07/16 16:30:56;;;;;;;;;;;;;;;;;;2200119;66;2004;-23
2023/07/16 16:33:27;;;;;;;;;;;;;;;;;;2200998;58;1754;-22
2023/07/16 16:35:57;;;;;;;;;;;;;;;;;;2202475;66;2126;-22
2023/07/16 16:38:27;;;;;;;;;;;;;;;;;;2203236;59;1912;-22
2023/07/16 16:41:03;;;;;;;;;;;;;;;;;;2204087;59;2624;-22
2023/07/16 16:43:35;;;;;;;;;;;;;;;;;;2204835;66;2165;-23
2023/07/16 16:46:05;;;;;;;;;;;;;;;;;;2202991;58;1935;-22
2023/07/16 16:48:37;;;;;;;;;;;;;;;;;;2203995;66;2463;-24
2023/07/16 16:51:08;;;;;;;;;;;;;;;;;;2202335;66;2731;-25
2023/07/16 16:53:40;;;;;;;;;;;;;;;;;;2203503;59;2466;-24
2023/07/16 16:56:10;;;;;;;;;;;;;;;;;;2202721;59;1940;-22
2023/07/16 16:58:41;;;;;;;;;;;;;;;;;;2203056;66;2042;-22
2023/07/16 17:01:15;;;;;;;;;;;;;;;;;;2201972;59;2389;-22
2023/07/16 17:03:46;;;;;;;;;;;;;;;;;;2203833;58;1818;-22
2023/07/16 17:06:16;;;;;;;;;;;;;;;;;;2202598;59;1910;-22
2023/07/16 17:08:46;;;;;;;;;;;;;;;;;;2203257;66;2018;-22
2023/07/16 17:11:17;;;;;;;;;;;;;;;;;;2203083;59;2107;-22
2023/07/16 17:13:47;;;;;;;;;;;;;;;;;;2199235;66;2052;-22
2023/07/16 17:16:17;;;;;;;;;;;;;;;;;;2202741;66;2140;-22
2023/07/16 17:18:47;;;;;;;;;;;;;;;;;;2202155;66;2766;-22
2023/07/16 17:21:18;;;;;;;;;;;;;;;;;;2203907;66;2024;-22
2023/07/16 17:23:50;;;;;;;;;;;;;;;;;;2205317;66;2372;-23
2023/07/16 17:26:20;;;;;;;;;;;;;;;;;;2200333;59;2018;-22